createdAt,value
2018-12-23T00:00:59.975Z,6.57
2018-12-23T00:03:28.716Z,7.47
2018-12-23T00:05:57.453Z,6.00
2018-12-23T00:08:26.096Z,5.70
2018-12-23T00:10:54.657Z,6.13
2018-12-23T00:13:23.263Z,5.57
2018-12-23T00:15:51.835Z,6.17
2018-12-23T00:18:20.497Z,5.17
2018-12-23T00:20:49.130Z,4.90
2018-12-23T00:23:17.698Z,6.30
2018-12-23T00:25:46.255Z,5.73
2018-12-23T00:28:14.904Z,6.33
2018-12-23T00:30:43.534Z,5.07
2018-12-23T00:33:12.131Z,7.23
2018-12-23T00:35:40.711Z,6.17
2018-12-23T00:38:09.264Z,6.27
2018-12-23T00:40:37.866Z,6.17
2018-12-23T00:43:06.427Z,5.37
2018-12-23T00:45:35.013Z,5.00
2018-12-23T00:48:03.619Z,5.90
2018-12-23T00:50:32.453Z,4.47
2018-12-23T00:53:01.060Z,6.63
2018-12-23T00:55:29.669Z,6.90
2018-12-23T00:57:58.260Z,6.20
2018-12-23T01:00:26.965Z,4.20
2018-12-23T01:02:55.681Z,4.30
2018-12-23T01:05:28.748Z,6.17
2018-12-23T01:07:54.933Z,4.57
2018-12-23T01:10:23.628Z,4.80
2018-12-23T01:12:52.218Z,5.57
2018-12-23T01:15:20.781Z,4.77
2018-12-23T01:17:49.374Z,4.50
2018-12-23T01:20:17.957Z,6.00
2018-12-23T01:22:46.805Z,4.33
2018-12-23T01:25:15.400Z,6.07
2018-12-23T01:27:44.136Z,4.10
2018-12-23T01:30:12.795Z,3.67
2018-12-23T01:32:41.351Z,4.50
2018-12-23T01:35:09.974Z,5.57
2018-12-23T01:37:38.522Z,3.33
2018-12-23T01:40:07.399Z,5.37
2018-12-23T01:42:36.007Z,7.90
2018-12-23T01:45:04.937Z,5.70
2018-12-23T01:47:33.606Z,5.30
2018-12-23T01:50:02.275Z,6.60
2018-12-23T01:52:30.885Z,4.93
2018-12-23T01:54:59.806Z,4.27
2018-12-23T01:57:28.413Z,4.13
2018-12-23T01:59:56.992Z,3.27
2018-12-23T02:02:25.651Z,5.47
2018-12-23T02:04:54.261Z,7.20
2018-12-23T02:07:23.084Z,4.60
2018-12-23T02:09:51.924Z,4.43
2018-12-23T02:12:20.552Z,3.20
2018-12-23T02:14:49.291Z,4.80
2018-12-23T02:17:17.894Z,4.23
2018-12-23T02:19:46.473Z,5.27
2018-12-23T02:22:15.089Z,5.17
2018-12-23T02:24:43.643Z,3.70
2018-12-23T02:27:12.251Z,5.87
2018-12-23T02:29:40.768Z,4.47
2018-12-23T02:32:09.420Z,3.03
2018-12-23T02:34:38.099Z,4.23
2018-12-23T02:37:06.828Z,3.77
2018-12-23T02:39:35.448Z,3.87
2018-12-23T02:42:04.026Z,3.37
2018-12-23T02:44:32.609Z,3.03
2018-12-23T02:47:01.271Z,3.60
2018-12-23T02:49:29.926Z,3.23
2018-12-23T02:51:58.730Z,3.87
2018-12-23T02:54:27.485Z,3.07
2018-12-23T02:56:56.025Z,3.63
2018-12-23T02:59:24.654Z,5.00
2018-12-23T03:01:53.239Z,3.43
2018-12-23T03:04:21.864Z,2.73
2018-12-23T03:06:50.474Z,3.93
2018-12-23T03:09:19.128Z,4.73
2018-12-23T03:11:47.765Z,2.57
2018-12-23T03:14:16.502Z,2.87
2018-12-23T03:16:45.494Z,5.10
2018-12-23T03:19:14.114Z,4.00
2018-12-23T03:21:42.903Z,4.10
2018-12-23T03:24:11.493Z,4.83
2018-12-23T03:26:40.091Z,3.23
2018-12-23T03:29:08.634Z,3.83
2018-12-23T03:31:37.293Z,3.40
2018-12-23T03:34:05.926Z,2.97
2018-12-23T03:36:34.514Z,5.07
2018-12-23T03:39:03.823Z,5.37
2018-12-23T03:41:32.370Z,3.53
2018-12-23T03:44:00.986Z,2.83
2018-12-23T03:46:29.775Z,4.70
2018-12-23T03:48:58.471Z,3.37
2018-12-23T03:51:27.133Z,3.50
2018-12-23T03:53:55.841Z,4.30
2018-12-23T03:56:24.527Z,3.30
2018-12-23T03:58:53.193Z,2.90
2018-12-23T04:01:21.944Z,5.57
2018-12-23T04:03:50.510Z,3.33
2018-12-23T04:06:24.553Z,3.57
2018-12-23T04:08:49.830Z,6.07
2018-12-23T04:11:18.449Z,4.40
2018-12-23T04:13:47.025Z,3.50
2018-12-23T04:16:15.629Z,5.80
2018-12-23T04:18:44.194Z,4.70
2018-12-23T04:21:12.880Z,5.53
2018-12-23T04:23:41.538Z,3.07
2018-12-23T04:26:10.146Z,3.77
2018-12-23T04:28:38.809Z,3.03
2018-12-23T04:31:07.419Z,2.67
2018-12-23T04:33:36.122Z,4.80
2018-12-23T04:36:04.835Z,2.70
2018-12-23T04:38:33.458Z,3.50
2018-12-23T04:41:02.058Z,3.07
2018-12-23T04:43:30.639Z,3.30
2018-12-23T04:45:59.197Z,1.87
2018-12-23T04:48:27.811Z,3.90
2018-12-23T04:50:56.406Z,3.23
2018-12-23T04:53:25.268Z,4.40
2018-12-23T04:55:53.853Z,2.87
2018-12-23T04:58:22.416Z,6.03
2018-12-23T05:00:51.393Z,3.47
2018-12-23T05:03:20.105Z,2.60
2018-12-23T05:05:48.712Z,3.33
2018-12-23T05:08:17.282Z,2.73
2018-12-23T05:10:45.861Z,2.40
2018-12-23T05:13:14.424Z,2.03
2018-12-23T05:15:43.038Z,4.67
2018-12-23T05:18:11.776Z,4.33
2018-12-23T05:20:40.398Z,2.87
2018-12-23T05:23:09.045Z,4.33
2018-12-23T05:25:37.648Z,4.33
2018-12-23T05:28:06.226Z,3.97
2018-12-23T05:30:35.011Z,5.40
2018-12-23T05:33:03.600Z,4.77
2018-12-23T05:35:32.329Z,2.93
2018-12-23T05:38:01.016Z,4.37
2018-12-23T05:40:29.758Z,5.17
2018-12-23T05:42:58.361Z,3.73
2018-12-23T05:45:26.943Z,2.90
2018-12-23T05:47:55.541Z,2.73
2018-12-23T05:50:24.126Z,5.80
2018-12-23T05:52:52.663Z,4.57
2018-12-23T05:55:24.830Z,5.17
2018-12-23T05:57:54.559Z,5.83
2018-12-23T06:00:23.284Z,3.77
2018-12-23T06:02:51.913Z,4.73
2018-12-23T06:05:20.522Z,2.60
2018-12-23T06:07:49.177Z,5.50
2018-12-23T06:10:17.844Z,4.13
2018-12-23T06:12:46.474Z,4.50
2018-12-23T06:15:15.149Z,4.10
2018-12-23T06:17:43.742Z,4.83
2018-12-23T06:20:12.325Z,3.57
2018-12-23T06:22:40.872Z,4.63
2018-12-23T06:25:09.499Z,5.93
2018-12-23T06:27:38.069Z,5.37
2018-12-23T06:30:07.642Z,6.20
2018-12-23T06:32:36.245Z,6.53
2018-12-23T06:35:05.319Z,5.30
2018-12-23T06:37:33.937Z,6.07
2018-12-23T06:40:02.528Z,5.27
2018-12-23T06:42:31.094Z,5.53
2018-12-23T06:44:59.776Z,7.63
2018-12-23T06:47:28.344Z,3.50
2018-12-23T06:49:56.953Z,3.07
2018-12-23T06:52:25.536Z,5.07
2018-12-23T06:54:54.090Z,3.73
2018-12-23T06:57:22.668Z,8.27
2018-12-23T06:59:51.289Z,8.20
2018-12-23T07:02:19.850Z,8.37
2018-12-23T07:04:48.608Z,8.70
2018-12-23T07:07:18.740Z,7.23
2018-12-23T07:09:47.812Z,3.47
2018-12-23T07:12:16.423Z,6.17
2018-12-23T07:14:45.040Z,3.43
2018-12-23T07:17:13.649Z,5.10
2018-12-23T07:19:42.447Z,9.03
2018-12-23T07:22:11.144Z,7.07
2018-12-23T07:24:39.815Z,8.13
2018-12-23T07:27:08.445Z,8.67
2018-12-23T07:29:37.037Z,6.93
2018-12-23T07:32:05.693Z,4.17
2018-12-23T07:34:34.468Z,3.60
2018-12-23T07:37:03.118Z,9.23
2018-12-23T07:39:31.780Z,9.73
2018-12-23T07:42:00.727Z,6.53
2018-12-23T07:44:29.346Z,9.63
2018-12-23T07:46:57.939Z,10.00
2018-12-23T07:49:26.680Z,10.43
2018-12-23T07:51:55.277Z,9.87
2018-12-23T07:54:23.883Z,4.23
2018-12-23T07:56:52.518Z,8.50
2018-12-23T07:59:21.174Z,5.03
2018-12-23T08:01:49.900Z,3.07
2018-12-23T08:04:18.506Z,9.93
2018-12-23T08:06:47.374Z,4.67
2018-12-23T08:09:16.031Z,4.40
2018-12-23T08:11:44.681Z,10.37
2018-12-23T08:14:13.357Z,8.40
2018-12-23T08:16:41.926Z,10.33
2018-12-23T08:19:10.783Z,4.07
2018-12-23T08:21:39.450Z,7.10
2018-12-23T08:24:08.474Z,3.93
2018-12-23T08:26:37.077Z,5.10
2018-12-23T08:29:05.714Z,8.83
2018-12-23T08:31:34.394Z,9.87
2018-12-23T08:34:03.038Z,9.30
2018-12-23T08:36:31.786Z,11.43
2018-12-23T08:39:00.402Z,13.00
2018-12-23T08:41:29.078Z,10.17
2018-12-23T08:43:57.725Z,9.23
2018-12-23T08:46:26.382Z,8.23
2018-12-23T08:48:54.960Z,9.93
2018-12-23T08:51:23.542Z,7.10
2018-12-23T08:53:52.105Z,10.17
2018-12-23T08:56:20.725Z,10.57
2018-12-23T08:58:49.553Z,7.07
2018-12-23T09:01:18.157Z,8.60
2018-12-23T09:03:46.915Z,8.40
2018-12-23T09:06:16.017Z,7.37
2018-12-23T09:08:44.619Z,7.07
2018-12-23T09:11:13.229Z,9.13
2018-12-23T09:13:41.829Z,9.47
2018-12-23T09:16:10.636Z,8.87
2018-12-23T09:18:39.279Z,9.63
2018-12-23T09:21:07.869Z,9.00
2018-12-23T09:23:36.451Z,8.27
2018-12-23T09:26:05.038Z,10.20
2018-12-23T09:28:33.593Z,9.60
2018-12-23T09:31:02.113Z,9.73
2018-12-23T09:33:30.809Z,9.77
2018-12-23T09:35:59.433Z,10.63
2018-12-23T09:38:28.050Z,12.30
2018-12-23T09:40:56.629Z,9.27
2018-12-23T09:43:25.254Z,10.23
2018-12-23T09:45:53.873Z,8.90
2018-12-23T09:48:22.454Z,7.63
2018-12-23T09:50:51.205Z,9.80
2018-12-23T09:53:19.836Z,9.70
2018-12-23T09:55:48.429Z,9.30
2018-12-23T09:58:17.125Z,8.97
2018-12-23T10:00:45.838Z,9.83
2018-12-23T10:03:14.538Z,10.33
2018-12-23T10:05:43.206Z,8.63
2018-12-23T10:08:11.838Z,8.90
2018-12-23T10:10:40.592Z,10.37
2018-12-23T10:13:09.260Z,8.60
2018-12-23T10:15:37.936Z,10.13
2018-12-23T10:18:06.593Z,8.53
2018-12-23T10:20:35.341Z,7.57
2018-12-23T10:23:03.942Z,10.93
2018-12-23T10:25:32.612Z,10.17
2018-12-23T10:28:01.253Z,10.00
2018-12-23T10:30:29.943Z,12.03
2018-12-23T10:32:58.621Z,11.63
2018-12-23T10:35:27.432Z,12.17
2018-12-23T10:37:56.204Z,13.57
2018-12-23T10:40:24.893Z,13.10
2018-12-23T10:42:53.569Z,12.30
2018-12-23T10:45:22.199Z,11.10
2018-12-23T10:47:50.875Z,11.37
2018-12-23T10:50:19.718Z,11.30
2018-12-23T10:52:48.285Z,10.97
2018-12-23T10:55:16.863Z,14.00
2018-12-23T10:57:45.471Z,11.23
2018-12-23T11:00:14.242Z,14.23
2018-12-23T11:02:43.465Z,17.70
2018-12-23T11:05:12.125Z,14.57
2018-12-23T11:07:40.716Z,13.13
2018-12-23T11:10:09.550Z,10.83
2018-12-23T11:12:38.357Z,11.87
2018-12-23T11:15:07.685Z,9.87
2018-12-23T11:17:36.414Z,10.97
2018-12-23T11:20:06.045Z,12.33
2018-12-23T11:22:34.784Z,12.23
2018-12-23T11:25:03.708Z,11.90
2018-12-23T11:27:32.313Z,11.70
2018-12-23T11:30:00.895Z,11.50
2018-12-23T11:32:29.501Z,11.07
2018-12-23T11:34:58.243Z,10.20
2018-12-23T11:37:26.858Z,10.03
2018-12-23T11:39:55.459Z,9.33
2018-12-23T11:42:24.265Z,8.07
2018-12-23T11:44:53.074Z,8.40
2018-12-23T11:47:21.840Z,10.33
2018-12-23T11:49:50.478Z,9.93
2018-12-23T11:52:19.086Z,10.80
2018-12-23T11:54:47.645Z,11.37
2018-12-23T11:57:16.316Z,11.93
2018-12-23T11:59:45.069Z,9.90
2018-12-23T12:02:15.318Z,8.70
2018-12-23T12:04:44.382Z,9.70
2018-12-23T12:07:13.045Z,9.40
2018-12-23T12:09:41.881Z,9.07
2018-12-23T12:12:10.486Z,7.57
2018-12-23T12:14:39.088Z,8.07
2018-12-23T12:17:07.685Z,8.57
2018-12-23T12:19:36.262Z,7.77
2018-12-23T12:22:04.898Z,9.83
2018-12-23T12:24:33.666Z,9.23
2018-12-23T12:27:02.692Z,9.00
2018-12-23T12:29:31.561Z,9.80
2018-12-23T12:32:00.087Z,7.77
2018-12-23T12:34:28.669Z,8.10
2018-12-23T12:36:57.242Z,5.83
2018-12-23T12:39:25.994Z,5.07
2018-12-23T12:41:54.693Z,7.13
2018-12-23T12:44:23.333Z,9.50
2018-12-23T12:46:52.032Z,8.10
2018-12-23T12:49:20.670Z,8.77
2018-12-23T12:51:49.298Z,8.70
2018-12-23T12:54:17.946Z,6.50
2018-12-23T12:56:46.656Z,8.37
2018-12-23T12:59:15.337Z,10.47
2018-12-23T13:01:44.024Z,10.80
2018-12-23T13:04:12.691Z,5.13
2018-12-23T13:06:41.259Z,7.70
2018-12-23T13:09:09.986Z,8.30
2018-12-23T13:11:38.634Z,7.93
2018-12-23T13:14:07.209Z,6.73
2018-12-23T13:16:35.825Z,9.60
2018-12-23T13:19:04.416Z,9.73
2018-12-23T13:21:33.106Z,8.37
2018-12-23T13:31:34.799Z,6.50
2018-12-23T13:34:04.765Z,7.80
2018-12-23T13:36:34.585Z,5.37
2018-12-23T13:39:09.083Z,9.20
2018-12-23T13:41:59.279Z,8.30
2018-12-23T13:45:08.885Z,10.50
2018-12-23T13:48:24.774Z,9.20
2018-12-23T13:51:34.852Z,11.47
2018-12-23T13:54:41.298Z,12.40
2018-12-23T13:57:46.269Z,12.87
2018-12-23T14:00:42.250Z,10.27
2018-12-23T14:03:48.620Z,8.03
2018-12-23T14:07:00.444Z,7.03
2018-12-23T14:09:58.350Z,10.43
2018-12-23T14:12:28.202Z,9.77
2018-12-23T14:14:58.107Z,9.20
2018-12-23T14:17:27.972Z,7.33
2018-12-23T14:19:57.846Z,11.40
2018-12-23T14:22:27.649Z,12.00
2018-12-23T14:24:57.404Z,7.87
2018-12-23T14:27:27.303Z,10.87
2018-12-23T14:29:57.442Z,10.77
2018-12-23T14:32:27.500Z,7.03
2018-12-23T14:34:57.415Z,6.87
2018-12-23T14:37:27.241Z,8.87
2018-12-23T14:39:57.000Z,13.80
2018-12-23T14:42:26.895Z,10.33
2018-12-23T14:44:56.757Z,13.23
2018-12-23T14:47:26.541Z,14.63
2018-12-23T14:49:56.450Z,16.60
2018-12-23T14:52:26.254Z,17.23
2018-12-23T14:54:56.089Z,16.17
2018-12-23T14:57:25.887Z,16.20
2018-12-23T14:59:55.813Z,14.80
2018-12-23T15:02:25.779Z,15.73
2018-12-23T15:04:55.522Z,15.37
2018-12-23T15:07:25.331Z,17.47
2018-12-23T15:09:55.205Z,16.23
2018-12-23T15:12:24.966Z,16.77
2018-12-23T15:14:54.833Z,16.93
2018-12-23T15:17:24.690Z,18.47
2018-12-23T15:19:54.503Z,19.87
2018-12-23T15:22:24.306Z,21.30
2018-12-23T15:24:54.168Z,26.10
2018-12-23T15:27:23.991Z,27.97
2018-12-23T15:29:53.890Z,24.90
2018-12-23T15:32:23.742Z,25.10
2018-12-23T15:34:53.706Z,24.33
2018-12-23T15:37:23.592Z,27.13
2018-12-23T15:39:53.402Z,20.20
2018-12-23T15:42:23.314Z,22.83
2018-12-23T15:44:53.168Z,24.73
2018-12-23T15:47:22.999Z,22.70
2018-12-23T15:49:52.909Z,20.67
2018-12-23T15:52:22.675Z,14.93
2018-12-23T15:54:52.521Z,19.43
2018-12-23T15:57:22.335Z,21.10
2018-12-23T15:59:52.158Z,21.33
2018-12-23T16:02:21.909Z,19.17
2018-12-23T16:04:51.760Z,23.40
2018-12-23T16:07:21.539Z,23.80
2018-12-23T16:09:51.536Z,25.13
2018-12-23T16:12:21.472Z,21.87
2018-12-23T16:14:51.268Z,20.77
2018-12-23T16:17:21.138Z,23.30
2018-12-23T16:19:50.882Z,25.23
2018-12-23T16:22:20.742Z,24.80
2018-12-23T16:24:50.571Z,28.97
2018-12-23T16:27:20.399Z,17.13
2018-12-23T16:29:50.254Z,27.47
2018-12-23T16:32:20.104Z,18.63
2018-12-23T16:34:52.031Z,28.53
2018-12-23T16:37:22.003Z,28.50
2018-12-23T16:39:59.416Z,28.10
2018-12-23T16:42:23.390Z,29.10
2018-12-23T16:44:53.391Z,26.90
2018-12-23T16:47:23.267Z,29.60
2018-12-23T16:49:53.135Z,28.10
2018-12-23T16:52:22.995Z,24.67
2018-12-23T16:54:52.787Z,27.70
2018-12-23T16:57:22.726Z,21.10
2018-12-23T16:59:52.486Z,20.93
2018-12-23T17:02:22.350Z,28.33
2018-12-23T17:04:52.289Z,27.27
2018-12-23T17:07:22.063Z,26.57
2018-12-23T17:09:51.832Z,25.83
2018-12-23T17:12:21.924Z,27.63
2018-12-23T17:14:51.790Z,28.97
2018-12-23T17:17:21.685Z,30.43
2018-12-23T17:19:51.518Z,30.30
2018-12-23T17:22:21.346Z,25.43
2018-12-23T17:24:51.175Z,29.97
2018-12-23T17:27:20.903Z,27.93
2018-12-23T17:29:50.846Z,26.87
2018-12-23T17:32:20.751Z,25.50
2018-12-23T17:34:50.742Z,27.37
2018-12-23T17:37:20.803Z,23.00
2018-12-23T17:39:50.592Z,20.63
2018-12-23T17:42:20.484Z,23.37
2018-12-23T17:44:51.288Z,24.43
2018-12-23T17:47:21.122Z,21.67
2018-12-23T17:49:50.973Z,24.33
2018-12-23T17:52:23.263Z,25.37
2018-12-23T17:54:52.377Z,25.27
2018-12-23T17:57:22.232Z,21.67
2018-12-23T17:59:52.143Z,21.80
2018-12-23T18:02:21.982Z,24.83
2018-12-23T18:04:51.790Z,21.17
2018-12-23T18:07:21.655Z,19.50
2018-12-23T18:09:51.522Z,21.77
2018-12-23T18:12:21.483Z,21.93
2018-12-23T18:14:51.370Z,23.57
2018-12-23T18:17:21.210Z,23.73
2018-12-23T18:19:51.063Z,21.50
2018-12-23T18:22:20.921Z,12.77
2018-12-23T18:24:50.898Z,23.10
2018-12-23T18:27:20.864Z,18.20
2018-12-23T18:29:50.631Z,19.93
2018-12-23T18:32:20.599Z,20.90
2018-12-23T18:34:50.600Z,21.87
2018-12-23T18:37:20.458Z,21.60
2018-12-23T18:39:50.319Z,22.93
2018-12-23T18:42:20.109Z,20.83
2018-12-23T18:44:49.971Z,19.23
2018-12-23T18:47:21.013Z,19.70
2018-12-23T18:49:50.916Z,23.90
2018-12-23T18:52:20.786Z,21.57
2018-12-23T18:54:50.622Z,22.20
2018-12-23T18:57:21.884Z,18.70
2018-12-23T18:59:52.738Z,20.80
2018-12-23T19:02:57.239Z,20.57
2018-12-23T19:05:27.211Z,23.00
2018-12-23T19:08:03.984Z,21.13
2018-12-23T19:11:06.182Z,21.20
2018-12-23T19:14:32.187Z,22.10
2018-12-23T19:17:49.163Z,20.63
2018-12-23T19:20:45.687Z,18.10
2018-12-23T19:24:08.287Z,17.57
2018-12-23T19:27:36.242Z,19.10
2018-12-23T19:30:55.210Z,21.27
2018-12-23T19:33:49.782Z,22.30
2018-12-23T19:37:12.654Z,21.50
2018-12-23T19:40:32.534Z,22.60
2018-12-23T19:43:37.784Z,20.47
2018-12-23T19:47:00.454Z,17.80
2018-12-23T19:50:01.678Z,15.43
2018-12-23T19:53:14.680Z,20.07
2018-12-23T19:56:19.866Z,17.07
2018-12-23T19:59:25.472Z,20.33
2018-12-23T20:02:19.704Z,16.47
2018-12-23T20:05:45.635Z,13.90
2018-12-23T20:08:55.124Z,15.17
2018-12-23T20:12:08.830Z,16.00
2018-12-23T20:15:14.703Z,16.27
2018-12-23T20:18:27.225Z,16.20
2018-12-23T20:21:47.035Z,15.40
2018-12-23T20:24:58.286Z,18.97
2018-12-23T20:28:07.960Z,17.93
2018-12-23T20:31:11.724Z,18.70
2018-12-23T20:34:48.087Z,18.20
2018-12-23T20:37:53.749Z,16.27
2018-12-23T20:40:50.860Z,17.73
2018-12-23T20:44:10.791Z,18.10
2018-12-23T20:47:13.666Z,14.87
2018-12-23T20:50:26.256Z,14.57
2018-12-23T20:53:36.843Z,11.33
2018-12-23T20:56:35.163Z,17.90
2018-12-23T20:59:28.615Z,9.47
2018-12-23T21:02:50.401Z,16.20
2018-12-23T21:05:57.224Z,15.63
2018-12-23T21:09:13.571Z,15.63
2018-12-23T21:12:29.252Z,16.23
2018-12-23T21:15:41.295Z,8.80
2018-12-23T21:19:10.356Z,15.53
2018-12-23T21:22:11.799Z,15.83
2018-12-23T21:25:32.846Z,15.57
2018-12-23T21:28:23.527Z,17.93
2018-12-23T21:31:36.172Z,12.17
2018-12-23T21:34:59.021Z,12.40
2018-12-23T21:38:00.715Z,14.17
2018-12-23T21:41:26.891Z,17.17
2018-12-23T21:44:29.581Z,15.90
2018-12-23T21:47:25.372Z,12.13
2018-12-23T21:50:36.136Z,15.57
2018-12-23T21:53:42.795Z,16.07
2018-12-23T21:57:04.610Z,15.93
2018-12-23T21:59:56.000Z,14.13
2018-12-23T22:03:34.279Z,15.27
2018-12-23T22:06:47.918Z,10.43
2018-12-23T22:09:54.673Z,14.40
2018-12-23T22:12:55.757Z,10.20
2018-12-23T22:15:25.660Z,6.53
2018-12-23T22:17:55.934Z,4.57
2018-12-23T22:20:25.904Z,7.37
2018-12-23T22:22:55.877Z,4.10
2018-12-23T22:25:25.757Z,3.50
2018-12-23T22:27:55.518Z,2.97
2018-12-23T22:30:25.371Z,2.17
2018-12-23T22:32:55.190Z,3.60
2018-12-23T22:35:24.858Z,3.73
2018-12-23T22:37:54.747Z,4.03
2018-12-23T22:40:24.695Z,4.87
2018-12-23T22:42:54.594Z,5.47
2018-12-23T22:45:24.410Z,5.47
2018-12-23T22:47:56.020Z,3.73
2018-12-23T22:50:26.106Z,5.40
2018-12-23T22:52:55.887Z,8.20
2018-12-23T22:55:25.750Z,8.63
2018-12-23T22:57:55.570Z,5.97
2018-12-23T23:00:31.402Z,5.07
2018-12-23T23:03:08.681Z,5.40
2018-12-23T23:05:32.944Z,4.60
2018-12-23T23:08:02.744Z,5.63
2018-12-23T23:10:32.607Z,6.30
2018-12-23T23:13:02.537Z,7.77
2018-12-23T23:15:32.443Z,6.27
2018-12-23T23:18:02.330Z,6.17
2018-12-23T23:20:32.166Z,11.30
2018-12-23T23:23:01.975Z,7.57
2018-12-23T23:25:31.846Z,10.70
2018-12-23T23:28:01.683Z,8.70
2018-12-23T23:30:31.469Z,7.90
2018-12-23T23:33:01.333Z,7.03
2018-12-23T23:35:31.159Z,6.97
2018-12-23T23:38:01.122Z,7.07
2018-12-23T23:40:30.911Z,7.97
2018-12-23T23:43:00.733Z,8.53
2018-12-23T23:45:30.688Z,7.10
2018-12-23T23:48:00.551Z,8.93
2018-12-23T23:50:30.417Z,8.97
2018-12-23T23:53:00.181Z,9.00
2018-12-23T23:55:30.010Z,9.63
2018-12-23T23:57:59.845Z,8.90
